createdAt,value
2018-06-24T00:02:26.077Z,14.75
2018-06-24T00:04:58.020Z,14.63
2018-06-24T00:07:32.405Z,14.86
2018-06-24T00:10:06.536Z,14.99
2018-06-24T00:12:37.265Z,14.77
2018-06-24T00:15:09.560Z,14.91
2018-06-24T00:17:43.309Z,14.91
2018-06-24T00:20:23.743Z,14.77
2018-06-24T00:22:55.242Z,14.68
2018-06-24T00:25:27.937Z,14.71
2018-06-24T00:27:59.381Z,14.85
2018-06-24T00:30:31.851Z,14.99
2018-06-24T00:33:05.252Z,14.73
2018-06-24T00:35:37.265Z,14.73
2018-06-24T00:38:10.093Z,14.84
2018-06-24T00:40:40.843Z,14.78
2018-06-24T00:43:11.401Z,14.73
2018-06-24T00:45:42.239Z,14.53
2018-06-24T00:48:14.022Z,14.40
2018-06-24T00:50:45.717Z,14.52
2018-06-24T00:53:17.266Z,14.37
2018-06-24T00:55:49.066Z,14.53
2018-06-24T00:58:20.946Z,14.37
2018-06-24T01:00:51.279Z,14.55
2018-06-24T01:03:22.063Z,14.38
2018-06-24T01:05:52.956Z,14.41
2018-06-24T01:08:23.624Z,14.53
2018-06-24T01:10:53.792Z,14.39
2018-06-24T01:13:24.427Z,14.41
2018-06-24T01:15:55.219Z,14.50
2018-06-24T01:18:26.718Z,14.44
2018-06-24T01:20:57.035Z,14.48
2018-06-24T01:23:28.288Z,14.49
2018-06-24T01:26:02.904Z,14.41
2018-06-24T01:28:33.394Z,14.48
2018-06-24T01:31:05.862Z,14.44
2018-06-24T01:33:37.605Z,14.41
2018-06-24T01:36:08.214Z,14.31
2018-06-24T01:38:39.205Z,14.31
2018-06-24T01:41:11.821Z,14.31
2018-06-24T01:43:44.829Z,14.32
2018-06-24T01:46:14.922Z,14.14
2018-06-24T01:48:48.646Z,14.18
2018-06-24T01:51:23.525Z,14.09
2018-06-24T01:53:55.675Z,13.95
2018-06-24T01:56:26.568Z,13.98
2018-06-24T01:58:58.574Z,13.96
2018-06-24T02:01:28.494Z,14.08
2018-06-24T02:03:59.411Z,13.99
2018-06-24T02:06:30.405Z,14.21
2018-06-24T02:09:01.885Z,14.19
2018-06-24T02:11:35.230Z,14.04
2018-06-24T02:14:07.449Z,14.10
2018-06-24T02:16:38.830Z,14.16
2018-06-24T02:19:11.187Z,14.14
2018-06-24T02:21:42.124Z,14.40
2018-06-24T02:24:14.522Z,14.32
2018-06-24T02:26:46.085Z,14.33
2018-06-24T02:29:17.484Z,14.15
2018-06-24T02:31:48.150Z,14.19
2018-06-24T02:34:20.353Z,14.15
2018-06-24T02:36:52.711Z,14.39
2018-06-24T02:39:23.657Z,14.35
2018-06-24T02:41:55.611Z,14.37
2018-06-24T02:44:26.895Z,14.01
2018-06-24T02:46:58.080Z,14.25
2018-06-24T02:49:30.270Z,14.13
2018-06-24T02:52:01.900Z,14.09
2018-06-24T02:54:34.369Z,14.02
2018-06-24T02:57:05.648Z,13.92
2018-06-24T02:59:37.302Z,13.89
2018-06-24T03:02:08.151Z,14.03
2018-06-24T03:04:39.047Z,14.19
2018-06-24T03:07:09.830Z,14.22
2018-06-24T03:09:41.882Z,14.05
2018-06-24T03:12:12.206Z,14.06
2018-06-24T03:14:44.531Z,13.95
2018-06-24T03:17:15.562Z,14.15
2018-06-24T03:19:49.170Z,14.09
2018-06-24T03:22:19.231Z,14.28
2018-06-24T03:24:52.100Z,14.16
2018-06-24T03:27:25.697Z,14.01
2018-06-24T03:29:56.947Z,14.05
2018-06-24T03:32:30.041Z,14.27
2018-06-24T03:35:01.746Z,14.20
2018-06-24T03:37:33.664Z,14.20
2018-06-24T03:40:04.423Z,14.19
2018-06-24T03:42:37.202Z,14.18
2018-06-24T03:45:10.088Z,14.15
2018-06-24T03:47:45.068Z,14.17
2018-06-24T03:50:19.118Z,14.24
2018-06-24T03:52:50.452Z,14.28
2018-06-24T03:55:22.480Z,14.38
2018-06-24T03:57:52.652Z,14.54
2018-06-24T04:00:23.860Z,14.38
2018-06-24T04:02:54.140Z,14.32
2018-06-24T04:05:25.194Z,14.27
2018-06-24T04:07:56.069Z,14.45
2018-06-24T04:10:26.899Z,14.34
2018-06-24T04:12:57.740Z,14.17
2018-06-24T04:15:28.153Z,14.11
2018-06-24T04:17:59.691Z,14.32
2018-06-24T04:20:30.978Z,14.23
2018-06-24T04:23:04.241Z,14.23
2018-06-24T04:25:35.444Z,14.29
2018-06-24T04:28:07.274Z,14.22
2018-06-24T04:30:38.186Z,14.30
2018-06-24T04:33:09.021Z,14.41
2018-06-24T04:35:41.728Z,14.32
2018-06-24T04:38:12.215Z,14.24
2018-06-24T04:40:44.372Z,14.03
2018-06-24T04:43:18.773Z,14.26
2018-06-24T04:45:50.476Z,14.33
2018-06-24T04:48:26.292Z,14.17
2018-06-24T04:51:01.159Z,14.35
2018-06-24T04:53:34.246Z,13.93
2018-06-24T04:56:10.831Z,14.07
2018-06-24T04:58:44.034Z,14.12
2018-06-24T05:01:19.455Z,14.21
2018-06-24T05:03:52.222Z,14.05
2018-06-24T05:06:25.272Z,14.10
2018-06-24T05:08:57.500Z,14.22
2018-06-24T05:11:29.070Z,14.04
2018-06-24T05:14:01.102Z,14.30
2018-06-24T05:16:33.087Z,14.39
2018-06-24T05:19:09.021Z,14.22
2018-06-24T05:21:40.707Z,14.40
2018-06-24T05:24:11.872Z,14.21
2018-06-24T05:26:45.695Z,14.38
2018-06-24T05:29:18.351Z,14.30
2018-06-24T05:31:50.266Z,14.73
2018-06-24T05:34:21.784Z,14.49
2018-06-24T05:36:52.602Z,14.86
2018-06-24T05:39:24.858Z,14.48
2018-06-24T05:42:02.547Z,14.75
2018-06-24T05:44:33.187Z,14.83
2018-06-24T05:47:03.983Z,14.97
2018-06-24T05:49:35.856Z,15.05
2018-06-24T05:52:08.115Z,15.07
2018-06-24T05:54:39.941Z,15.25
2018-06-24T05:57:14.184Z,15.42
2018-06-24T06:02:34.523Z,15.29
2018-06-24T06:05:11.787Z,15.41
2018-06-24T06:07:45.403Z,15.68
2018-06-24T06:10:22.361Z,15.83
2018-06-24T06:12:54.657Z,15.97
2018-06-24T06:15:27.591Z,15.84
2018-06-24T06:18:02.008Z,16.00
2018-06-24T06:20:35.305Z,15.92
2018-06-24T06:23:13.882Z,15.83
2018-06-24T06:25:52.002Z,15.88
2018-06-24T06:28:30.144Z,15.63
2018-06-24T06:31:11.158Z,16.02
2018-06-24T06:33:46.307Z,16.24
2018-06-24T06:36:20.058Z,16.24
2018-06-24T06:39:01.484Z,16.33
2018-06-24T06:41:34.825Z,16.52
2018-06-24T06:44:09.459Z,16.70
2018-06-24T06:46:43.408Z,16.19
2018-06-24T06:49:16.683Z,16.18
2018-06-24T06:51:49.440Z,16.51
2018-06-24T06:54:23.022Z,16.42
2018-06-24T06:56:56.325Z,16.43
2018-06-24T06:59:29.533Z,16.64
2018-06-24T07:02:02.105Z,16.25
2018-06-24T07:04:39.012Z,16.51
2018-06-24T07:07:17.453Z,16.80
2018-06-24T07:09:54.664Z,16.56
2018-06-24T07:12:41.347Z,16.70
2018-06-24T07:15:16.640Z,17.11
2018-06-24T07:17:49.021Z,17.18
2018-06-24T07:20:22.623Z,17.27
2018-06-24T07:22:59.909Z,17.07
2018-06-24T07:25:35.398Z,17.13
2018-06-24T07:28:08.514Z,17.47
2018-06-24T07:30:42.952Z,17.20
2018-06-24T07:33:22.227Z,17.62
2018-06-24T07:35:58.028Z,17.69
2018-06-24T07:38:31.722Z,17.23
2018-06-24T07:41:08.065Z,17.08
2018-06-24T07:43:44.974Z,17.04
2018-06-24T07:46:21.327Z,16.89
2018-06-24T07:48:52.803Z,17.29
2018-06-24T07:51:31.948Z,17.66
2018-06-24T07:54:06.646Z,17.35
2018-06-24T07:56:42.150Z,17.56
2018-06-24T07:59:16.513Z,17.48
2018-06-24T08:01:51.145Z,17.43
2018-06-24T08:04:24.783Z,17.58
2018-06-24T08:07:01.536Z,17.97
2018-06-24T08:09:39.210Z,17.66
2018-06-24T08:12:21.226Z,17.67
2018-06-24T08:14:58.813Z,17.53
2018-06-24T08:17:33.774Z,17.38
2018-06-24T08:22:48.653Z,17.79
2018-06-24T08:25:22.599Z,17.84
2018-06-24T08:27:54.702Z,17.31
2018-06-24T08:30:29.099Z,17.70
2018-06-24T08:33:03.921Z,17.81
2018-06-24T08:35:40.397Z,18.08
2018-06-24T08:38:20.728Z,18.03
2018-06-24T08:40:57.138Z,18.16
2018-06-24T08:43:35.760Z,18.49
2018-06-24T08:46:19.728Z,18.79
2018-06-24T08:48:56.816Z,18.85
2018-06-24T08:51:33.255Z,19.00
2018-06-24T09:01:16.839Z,18.33
2018-06-24T09:03:45.676Z,18.35
2018-06-24T09:06:15.118Z,18.38
2018-06-24T09:08:43.902Z,18.64
2018-06-24T09:11:12.920Z,18.30
2018-06-24T09:13:41.783Z,18.52
2018-06-24T09:16:10.650Z,18.88
2018-06-24T09:18:39.803Z,18.70
2018-06-24T09:21:08.948Z,18.52
2018-06-24T09:23:38.434Z,18.44
2018-06-24T09:26:07.677Z,18.39
2018-06-24T09:28:36.438Z,18.47
2018-06-24T09:31:05.779Z,18.32
2018-06-24T09:33:34.810Z,18.30
2018-06-24T09:36:03.741Z,18.32
2018-06-24T09:38:32.641Z,18.12
2018-06-24T09:41:01.667Z,18.30
2018-06-24T09:43:30.656Z,18.31
2018-06-24T09:45:59.460Z,18.30
2018-06-24T09:48:28.370Z,17.85
2018-06-24T09:50:57.635Z,17.68
2018-06-24T09:53:26.674Z,17.89
2018-06-24T09:55:55.569Z,18.16
2018-06-24T09:58:25.003Z,18.39
2018-06-24T10:00:53.716Z,18.50
2018-06-24T10:03:22.794Z,18.66
2018-06-24T10:05:52.004Z,19.05
2018-06-24T10:08:20.846Z,19.38
2018-06-24T10:10:49.609Z,19.21
2018-06-24T10:13:18.592Z,19.40
2018-06-24T10:15:47.693Z,19.78
2018-06-24T10:18:16.621Z,19.10
2018-06-24T10:20:45.703Z,19.08
2018-06-24T10:23:14.940Z,19.31
2018-06-24T10:25:43.793Z,19.86
2018-06-24T10:28:13.059Z,19.95
2018-06-24T10:30:42.126Z,19.85
2018-06-24T10:33:11.387Z,20.16
2018-06-24T10:35:40.520Z,20.72
2018-06-24T10:38:09.545Z,20.72
2018-06-24T10:40:38.421Z,20.45
2018-06-24T10:43:07.435Z,20.88
2018-06-24T10:45:36.495Z,20.53
2018-06-24T10:48:06.579Z,20.69
2018-06-24T10:50:35.815Z,20.99
2018-06-24T10:53:04.907Z,20.54
2018-06-24T10:55:34.111Z,20.63
2018-06-24T10:58:02.999Z,20.74
2018-06-24T11:00:32.029Z,20.57
2018-06-24T11:03:01.593Z,20.62
2018-06-24T11:05:30.467Z,20.51
2018-06-24T11:07:59.584Z,20.98
2018-06-24T11:10:28.468Z,20.71
2018-06-24T11:12:57.371Z,20.23
2018-06-24T11:15:26.099Z,19.51
2018-06-24T11:17:54.986Z,19.16
2018-06-24T11:20:23.811Z,19.69
2018-06-24T11:22:52.759Z,19.87
2018-06-24T11:25:21.488Z,19.71
2018-06-24T11:27:50.567Z,19.78
2018-06-24T11:30:19.382Z,19.77
2018-06-24T11:32:48.327Z,20.06
2018-06-24T11:35:17.849Z,19.80
2018-06-24T11:37:46.667Z,19.82
2018-06-24T11:40:15.690Z,19.22
2018-06-24T11:42:44.749Z,19.24
2018-06-24T11:45:14.285Z,19.27
2018-06-24T11:47:43.207Z,19.15
2018-06-24T11:50:11.923Z,19.15
2018-06-24T11:52:47.361Z,19.04
2018-06-24T11:55:16.498Z,18.82
2018-06-24T11:57:45.277Z,18.80
2018-06-24T12:00:14.556Z,18.97
2018-06-24T12:02:43.470Z,19.03
2018-06-24T12:05:12.670Z,19.02
2018-06-24T12:07:41.625Z,18.88
2018-06-24T12:10:10.680Z,19.03
2018-06-24T12:12:39.786Z,18.69
2018-06-24T12:15:08.562Z,18.58
2018-06-24T12:17:37.958Z,18.71
2018-06-24T12:20:06.709Z,18.71
2018-06-24T12:22:35.745Z,19.24
2018-06-24T12:25:04.628Z,19.47
2018-06-24T12:27:33.485Z,19.80
2018-06-24T12:30:02.418Z,19.69
2018-06-24T12:32:31.391Z,20.10
2018-06-24T12:35:00.454Z,20.13
2018-06-24T12:37:29.391Z,19.98
2018-06-24T12:39:58.607Z,20.25
2018-06-24T12:42:27.778Z,20.31
2018-06-24T12:44:56.795Z,20.56
2018-06-24T12:47:25.597Z,20.80
2018-06-24T12:49:55.049Z,21.48
2018-06-24T12:52:23.944Z,21.25
2018-06-24T12:54:52.669Z,21.26
2018-06-24T12:57:21.552Z,21.44
2018-06-24T12:59:50.700Z,22.06
2018-06-24T13:02:19.497Z,23.10
2018-06-24T13:04:48.624Z,22.99
2018-06-24T13:07:17.782Z,24.65
2018-06-24T13:09:47.042Z,24.63
2018-06-24T13:12:16.233Z,24.38
2018-06-24T13:14:45.124Z,23.55
2018-06-24T13:17:14.303Z,23.02
2018-06-24T13:19:43.429Z,23.23
2018-06-24T13:22:12.288Z,25.15
2018-06-24T13:24:41.331Z,27.81
2018-06-24T13:27:10.579Z,27.34
2018-06-24T13:29:39.305Z,28.58
2018-06-24T13:32:10.375Z,28.08
2018-06-24T13:34:39.447Z,25.77
2018-06-24T13:37:08.999Z,24.78
2018-06-24T13:39:37.993Z,23.04
2018-06-24T13:42:06.855Z,23.77
2018-06-24T13:44:35.707Z,23.03
2018-06-24T13:47:04.798Z,22.79
2018-06-24T13:49:33.842Z,22.89
2018-06-24T13:52:02.700Z,23.40
2018-06-24T13:54:31.595Z,23.32
2018-06-24T13:57:00.502Z,22.48
2018-06-24T13:59:29.883Z,21.83
2018-06-24T14:01:59.066Z,21.51
2018-06-24T14:04:27.890Z,21.61
2018-06-24T14:06:57.316Z,21.80
2018-06-24T14:09:26.462Z,21.93
2018-06-24T14:11:56.584Z,21.36
2018-06-24T14:14:25.384Z,20.96
2018-06-24T14:16:54.450Z,20.74
2018-06-24T14:19:23.861Z,20.62
2018-06-24T14:21:52.966Z,20.97
2018-06-24T14:24:21.925Z,20.90
2018-06-24T14:26:51.102Z,20.89
2018-06-24T14:29:20.129Z,20.98
2018-06-24T14:31:49.010Z,20.93
2018-06-24T14:34:18.157Z,20.97
2018-06-24T14:36:47.343Z,21.18
2018-06-24T14:39:16.368Z,21.02
2018-06-24T14:41:45.403Z,20.70
2018-06-24T14:44:14.163Z,20.93
2018-06-24T14:46:43.342Z,21.10
2018-06-24T14:49:12.342Z,21.42
2018-06-24T14:51:41.177Z,21.64
2018-06-24T14:54:09.931Z,22.31
2018-06-24T14:56:38.865Z,23.06
2018-06-24T14:59:07.637Z,23.30
2018-06-24T15:01:36.579Z,23.19
2018-06-24T15:04:05.625Z,23.50
2018-06-24T15:06:34.753Z,23.52
2018-06-24T15:09:03.843Z,23.52
2018-06-24T15:11:32.746Z,22.60
2018-06-24T15:14:02.202Z,21.60
2018-06-24T15:16:31.348Z,21.65
2018-06-24T15:19:00.169Z,22.20
2018-06-24T15:21:29.261Z,21.81
2018-06-24T15:23:58.852Z,21.70
2018-06-24T15:26:27.898Z,21.77
2018-06-24T15:28:56.917Z,21.66
2018-06-24T15:31:25.892Z,21.83
2018-06-24T15:33:55.206Z,21.92
2018-06-24T15:36:24.233Z,22.05
2018-06-24T15:38:53.179Z,22.06
2018-06-24T15:41:22.562Z,22.05
2018-06-24T15:43:52.464Z,22.20
2018-06-24T15:46:21.581Z,22.27
2018-06-24T15:48:51.209Z,21.74
2018-06-24T15:51:20.422Z,21.65
2018-06-24T15:53:49.135Z,21.93
2018-06-24T15:56:18.466Z,22.06
2018-06-24T15:58:47.470Z,22.18
2018-06-24T16:01:16.900Z,21.88
2018-06-24T16:03:46.011Z,21.86
2018-06-24T16:06:14.963Z,21.51
2018-06-24T16:08:43.789Z,21.36
2018-06-24T16:11:12.519Z,21.23
2018-06-24T16:13:41.304Z,21.05
2018-06-24T16:16:10.250Z,20.75
2018-06-24T16:18:39.618Z,20.62
2018-06-24T16:21:09.334Z,20.40
2018-06-24T16:23:38.118Z,20.40
2018-06-24T16:26:07.038Z,20.18
2018-06-24T16:28:36.075Z,20.01
2018-06-24T16:31:05.455Z,20.12
2018-06-24T16:33:34.638Z,20.08
2018-06-24T16:36:04.908Z,20.12
2018-06-24T16:38:36.745Z,20.00
2018-06-24T16:41:05.762Z,20.04
2018-06-24T16:43:34.782Z,19.96
2018-06-24T16:46:03.748Z,19.94
2018-06-24T16:48:32.755Z,19.96
2018-06-24T16:51:01.569Z,19.97
2018-06-24T16:53:30.519Z,20.05
2018-06-24T16:55:59.490Z,20.11
2018-06-24T16:58:28.382Z,19.96
2018-06-24T17:00:57.431Z,19.98
2018-06-24T17:03:26.547Z,19.90
2018-06-24T17:05:55.877Z,19.78
2018-06-24T17:08:24.638Z,19.70
2018-06-24T17:10:53.685Z,19.54
2018-06-24T17:13:22.437Z,19.39
2018-06-24T17:15:51.491Z,19.47
2018-06-24T17:18:26.221Z,19.36
2018-06-24T17:20:55.442Z,19.42
2018-06-24T17:23:25.079Z,19.45
2018-06-24T17:25:54.846Z,19.45
2018-06-24T17:28:24.140Z,19.45
2018-06-24T17:30:53.134Z,19.43
2018-06-24T17:33:22.305Z,19.42
2018-06-24T17:35:51.114Z,19.55
2018-06-24T17:38:20.184Z,19.34
2018-06-24T17:40:49.106Z,19.16
2018-06-24T17:43:17.929Z,19.25
2018-06-24T17:45:46.912Z,19.26
2018-06-24T17:48:15.706Z,19.26
2018-06-24T17:50:44.871Z,19.27
2018-06-24T17:53:15.518Z,19.32
2018-06-24T17:55:45.343Z,19.32
2018-06-24T17:58:14.307Z,19.30
2018-06-24T18:00:43.118Z,19.24
2018-06-24T18:03:12.180Z,19.29
2018-06-24T18:05:40.949Z,19.31
2018-06-24T18:08:10.458Z,19.24
2018-06-24T18:10:39.580Z,19.11
2018-06-24T18:13:08.416Z,19.00
2018-06-24T18:15:37.318Z,18.97
2018-06-24T18:18:06.690Z,18.99
2018-06-24T18:20:36.740Z,18.99
2018-06-24T18:23:05.806Z,18.98
2018-06-24T18:25:35.204Z,18.96
2018-06-24T18:28:04.323Z,18.85
2018-06-24T18:30:33.693Z,18.84
2018-06-24T18:33:02.687Z,18.83
2018-06-24T18:35:33.894Z,18.71
2018-06-24T18:38:02.606Z,18.72
2018-06-24T18:40:31.364Z,18.74
2018-06-24T18:43:00.305Z,18.64
2018-06-24T18:45:29.215Z,18.66
2018-06-24T18:47:58.111Z,18.65
2018-06-24T18:50:27.070Z,18.60
2018-06-24T18:52:55.977Z,18.56
2018-06-24T18:55:25.059Z,18.57
2018-06-24T18:57:53.833Z,18.42
2018-06-24T19:00:22.647Z,18.43
2018-06-24T19:02:51.981Z,18.33
2018-06-24T19:05:21.254Z,18.33
2018-06-24T19:07:50.263Z,18.22
2018-06-24T19:10:19.171Z,18.28
2018-06-24T19:12:48.330Z,18.28
2018-06-24T19:15:17.672Z,18.23
2018-06-24T19:17:46.903Z,18.23
2018-06-24T19:20:15.893Z,18.28
2018-06-24T19:22:44.888Z,18.26
2018-06-24T19:25:15.249Z,18.38
2018-06-24T19:27:44.200Z,18.32
2018-06-24T19:30:13.685Z,18.22
2018-06-24T19:32:43.775Z,18.23
2018-06-24T19:35:13.183Z,18.20
2018-06-24T19:37:42.063Z,18.17
2018-06-24T19:40:10.902Z,18.13
2018-06-24T19:42:39.878Z,18.18
2018-06-24T19:45:08.878Z,18.13
2018-06-24T19:47:37.991Z,18.05
2018-06-24T19:50:06.838Z,18.10
2018-06-24T19:52:36.373Z,18.07
2018-06-24T19:55:05.440Z,18.05
2018-06-24T19:57:34.465Z,18.05
2018-06-24T20:00:03.440Z,18.12
2018-06-24T20:02:32.752Z,18.08
2018-06-24T20:05:01.659Z,18.02
2018-06-24T20:07:30.742Z,17.98
2018-06-24T20:09:59.606Z,17.91
2018-06-24T20:12:28.555Z,17.85
2018-06-24T20:14:57.712Z,17.73
2018-06-24T20:17:26.724Z,17.70
2018-06-24T20:19:55.595Z,17.55
2018-06-24T20:22:24.408Z,17.57
2018-06-24T20:24:53.277Z,17.51
2018-06-24T20:27:22.094Z,17.47
2018-06-24T20:29:51.150Z,17.38
2018-06-24T20:32:20.115Z,17.46
2018-06-24T20:34:48.925Z,17.35
2018-06-24T20:37:17.914Z,17.19
2018-06-24T20:39:46.837Z,17.08
2018-06-24T20:42:16.125Z,17.01
2018-06-24T20:44:45.111Z,17.08
2018-06-24T20:47:14.144Z,17.15
2018-06-24T20:49:43.223Z,17.11
2018-06-24T20:52:12.503Z,17.14
2018-06-24T20:54:41.685Z,17.18
2018-06-24T20:57:15.240Z,17.19
2018-06-24T20:59:44.109Z,17.14
2018-06-24T21:02:13.130Z,17.13
2018-06-24T21:04:42.185Z,17.02
2018-06-24T21:07:11.053Z,17.04
2018-06-24T21:09:40.183Z,16.95
2018-06-24T21:12:09.230Z,16.78
2018-06-24T21:14:38.141Z,16.77
2018-06-24T21:17:06.951Z,16.74
2018-06-24T21:19:36.066Z,16.83
2018-06-24T21:22:05.054Z,16.83
2018-06-24T21:24:39.062Z,16.83
2018-06-24T21:27:09.585Z,16.82
2018-06-24T21:29:40.669Z,16.87
2018-06-24T21:32:10.176Z,16.69
2018-06-24T21:34:39.309Z,16.72
2018-06-24T21:37:08.621Z,16.64
2018-06-24T21:39:37.630Z,16.69
2018-06-24T21:42:06.548Z,16.75
2018-06-24T21:44:35.664Z,16.70
2018-06-24T21:47:04.805Z,16.65
2018-06-24T21:49:34.057Z,16.73
2018-06-24T21:52:02.810Z,16.53
2018-06-24T21:54:31.982Z,16.52
2018-06-24T21:57:00.765Z,16.60
2018-06-24T21:59:29.566Z,16.55
2018-06-24T22:01:58.373Z,16.42
2018-06-24T22:04:27.115Z,16.45
2018-06-24T22:06:56.455Z,16.42
2018-06-24T22:09:25.634Z,16.36
2018-06-24T22:11:54.570Z,16.31
2018-06-24T22:14:23.465Z,16.37
2018-06-24T22:16:52.440Z,16.48
2018-06-24T22:19:21.272Z,16.43
2018-06-24T22:21:50.184Z,16.51
2018-06-24T22:24:19.008Z,16.50
2018-06-24T22:26:48.014Z,16.45
2018-06-24T22:29:17.071Z,16.38
2018-06-24T22:31:46.028Z,16.42
2018-06-24T22:34:14.999Z,16.37
2018-06-24T22:36:43.866Z,16.32
2018-06-24T22:39:13.447Z,16.30
2018-06-24T22:41:42.775Z,16.26
2018-06-24T22:44:11.786Z,16.18
2018-06-24T22:46:40.814Z,16.08
2018-06-24T22:49:09.650Z,16.02
2018-06-24T22:51:38.807Z,16.04
2018-06-24T22:54:07.733Z,15.98
2018-06-24T22:56:36.772Z,15.98
2018-06-24T22:59:16.793Z,16.00
2018-06-24T23:01:46.019Z,16.01
2018-06-24T23:04:15.285Z,15.94
2018-06-24T23:06:44.311Z,16.01
2018-06-24T23:09:13.310Z,15.99
2018-06-24T23:11:42.413Z,15.82
2018-06-24T23:14:11.262Z,15.91
2018-06-24T23:16:40.258Z,15.91
2018-06-24T23:19:09.180Z,15.89
2018-06-24T23:21:38.415Z,15.89
2018-06-24T23:24:07.263Z,15.87
2018-06-24T23:26:36.149Z,15.89
2018-06-24T23:29:05.168Z,15.94
2018-06-24T23:31:33.892Z,15.85
2018-06-24T23:34:02.808Z,15.86
2018-06-24T23:36:31.675Z,15.87
2018-06-24T23:39:00.535Z,15.92
2018-06-24T23:41:29.395Z,15.90
2018-06-24T23:43:58.262Z,15.92
2018-06-24T23:46:27.219Z,15.92
2018-06-24T23:48:56.414Z,16.02
2018-06-24T23:51:25.232Z,15.90
2018-06-24T23:53:53.998Z,15.81
2018-06-24T23:56:23.027Z,15.79
2018-06-24T23:58:51.770Z,15.81
